Thunder radar more information blitzortung!


Radar de pluja more information rain snow radar


Visita la nostra xarxa de llocs de meteo:

Template documentation
and downloads

And another site



No particular awareness of the weather is required.    There are no Weather-warnings

Pagina Historial Weather Underground text

Diari Resum Setembre 14, 2017 Unitats:  Imperial    Mètric   Tant
« Previous Dia
SegĂźent Dia »
Diari Setmana Mensual Anual Personalitzada
  Maxima: Minima: Media:
Temperatura: 86.7 °F 59.2 °F 68 °F
Punt de rosada: 66.9 °F 52.5 °F 56.7 °F
Humitat: 83 % 52 % 68 %
Wind Speed: 8.5 mph 0 mph 2.6 mph
RĂ fegues de vent: 8.5 mph - -
Vent:- - South
Pression baro: 30.1 in 29.9 in -
Precipitacions: 0 in    
Historical Graphs
 
 
Dades de taula per Setembre 14, 2017
Temps Temperatura Punt de rosada Pression baro Vent Wind Speed RĂ fegues de vent Humitat Rainfall Rate (Hourly)
00:04 68.9 °F 61.3 °F 30.1 in West 2.3 mph 2.3 mph 77 % 0 in
00:05 68.9 °F 61.3 °F 30.1 in SW 2.3 mph 2.3 mph 77 % 0 in
19:15 64.8 °F 52.7 °F 30 in ESE 2 mph 2 mph 65 % 0 in
19:25 64.6 °F 52.5 °F 30 in ESE 2 mph 3 mph 65 % 0 in
19:35 64.6 °F 53.1 °F 30 in Calm   2 mph 66 % 0 in
19:45 64 °F 53.2 °F 30 in Calm   3 mph 68 % 0 in
19:55 63.5 °F 53.1 °F 30 in SSE 2 mph 2 mph 69 % 0 in
20:05 63.3 °F 53.8 °F 30 in Calm   4 mph 71 % 0 in
20:15 62.2 °F 53.8 °F 30 in South 1 mph 1 mph 74 % 0 in
20:25 61.5 °F 53.4 °F 30 in SW 1 mph 2 mph 75 % 0.04 in
20:35 61 °F 54.1 °F 30 in SSW 2 mph 3 mph 78 % 0.21 in
20:45 60.8 °F 54.1 °F 30 in NE 1 mph 2 mph 79 % 0.21 in
20:55 60.6 °F 54.3 °F 30 in NNE 2 mph 2 mph 80 % 0.04 in
21:05 60.6 °F 54.9 °F 30 in NE 1 mph 2 mph 81 % 0 in
21:15 60.4 °F 54.9 °F 30 in North 1 mph 2 mph 82 % 0 in
21:25 60.6 °F 55.4 °F 30 in NNW 1 mph 2 mph 83 % 0 in
21:35 60.3 °F 54.3 °F 30 in West 2 mph 3 mph 81 % 0 in
21:42 86.7 °F 66.9 °F 29.9 in West 1.2 mph   52 % 0 in
21:43 86.7 °F 66.9 °F 29.9 in West 1.2 mph   52 % 0 in
21:45 59.9 °F 54.3 °F 30 in West 2 mph 3 mph 82 % 0 in
21:48 86.7 °F 66.9 °F 29.9 in West 1.2 mph   52 % 0 in
21:53 86.7 °F 66.9 °F 29.9 in West 1.2 mph   52 % 0 in
21:55 59.5 °F 54 °F 30 in WNW 1 mph 2 mph 82 % 0 in
21:58 86.7 °F 66.9 °F 29.9 in West 1.2 mph   52 % 0 in
22:03 86.7 °F 66.9 °F 29.9 in West 1.2 mph   52 % 0 in
22:05 59.2 °F 54 °F 30 in North 2 mph 3 mph 83 % 0.04 in
22:10 69.3 °F 57.4 °F 30 in WSW 2.6 mph 2.6 mph 66 % 0 in
22:15 69.3 °F 57.4 °F 30 in SW 2.3 mph 2.3 mph 66 % 0 in
22:20 69.3 °F 57.4 °F 30 in WSW 2.3 mph 2.3 mph 66 % 0 in
22:25 69.3 °F 57.4 °F 30 in WSW 2.3 mph 2.3 mph 66 % 0 in
22:30 69.3 °F 57.4 °F 30 in WSW 2.3 mph 2.3 mph 66 % 0 in
22:35 69.3 °F 57.4 °F 30 in SW 1.6 mph   66 % 0 in
22:40 69.3 °F 57.4 °F 30 in West 2 mph   66 % 0 in
22:45 69.3 °F 57.4 °F 30 in South 2.3 mph 2.3 mph 66 % 0 in
22:50 69.3 °F 57.4 °F 30 in NNE 2.3 mph 2.3 mph 66 % 0 in
22:55 69.3 °F 57.7 °F 30 in ENE 2.9 mph 2.9 mph 67 % 0 in
23:00 69.1 °F 58.1 °F 30 in East 2.3 mph 2.3 mph 68 % 0 in
23:05 68.9 °F 57.9 °F 30 in SE 8.5 mph 8.5 mph 68 % 0 in
23:10 68 °F 56.1 °F 30 in East 6.9 mph 6.9 mph 66 % 0 in
23:15 67.6 °F 55.6 °F 30 in ESE 5.8 mph 5.8 mph 65 % 0 in
23:20 67.3 °F 54.3 °F 30 in ESE 6.9 mph 6.9 mph 63 % 0 in
23:25 66.9 °F 54 °F 30 in East 4.6 mph 4.6 mph 63 % 0 in
23:30 66.6 °F 53.1 °F 30 in ESE 5.8 mph 5.8 mph 62 % 0 in
23:35 66.4 °F 53.1 °F 30 in ENE 5.8 mph 5.8 mph 62 % 0 in
23:40 65.8 °F 52.9 °F 30 in ESE 6.9 mph 6.9 mph 63 % 0 in
23:45 65.3 °F 52.9 °F 30 in ESE 6.9 mph 6.9 mph 64 % 0 in
23:50 65.3 °F 52.9 °F 30 in ESE 3.5 mph 3.5 mph 64 % 0 in
23:55 65.1 °F 52.5 °F 30 in ENE 2.6 mph 2.6 mph 64 % 0 in
Meteo Sesrovires
Elogis d' Weather Underground - 2.75 mb

Guio original per  Jim McMurry - jmcmurry@mwt.net Adaptat per a la plantilla per  Wim van der Kuil - Leuven-Template.eu

Trobareu la nostra informacio del temps tambe a:

Weather Underground

AWEKAS